Kirkcudbright, United Kingdom
Current Conditions -  °F | °C
As of 11:50 PM on Sunday 21 Dec 2014 (Local Time) from EGPK Reporting Station
Moderate Rain Moderate Rain  
Wind Chill: 52°   Ceiling: 1500
Heat Index: 52°   Visibility: 4mi
Dew Point: 50°   Wind: 23mph
Humidity: 94%   Direction: 220°SW
Pressure: 29.65"   Gusts: NA
Location:  54.84°N, 4.05°W
Report Text: EGPK 212350Z 22020KT 6000 RA FEW006 SCT011 BKN015 11/10 Q1004
Loading
Personal Weather Stations






























Interactive Weather Map New forecast layout! Learn more

10-Day Weather Forecast

Advertisements
Track Severe Weather on mobile